createdAt,value
2022-10-21T00:00:35.306Z,87.20
2022-10-21T00:03:02.431Z,87.30
2022-10-21T00:05:29.196Z,87.50
2022-10-21T00:07:56.233Z,87.20
2022-10-21T00:10:25.083Z,87.20
2022-10-21T00:12:51.962Z,87.70
2022-10-21T00:15:19.011Z,87.60
2022-10-21T00:17:45.813Z,87.40
2022-10-21T00:20:13.405Z,87.20
2022-10-21T00:22:40.742Z,87.00
2022-10-21T00:25:08.116Z,86.90
2022-10-21T00:27:35.473Z,87.00
2022-10-21T00:30:08.239Z,87.20
2022-10-21T00:32:35.634Z,87.60
2022-10-21T00:35:02.525Z,87.30
2022-10-21T00:37:35.576Z,87.60
2022-10-21T00:40:02.667Z,87.70
2022-10-21T00:42:33.657Z,87.60
2022-10-21T00:45:07.567Z,87.60
2022-10-21T00:47:59.249Z,87.50
2022-10-21T00:50:43.213Z,87.30
2022-10-21T00:53:14.017Z,87.30
2022-10-21T00:55:47.493Z,87.20
2022-10-21T00:58:15.617Z,87.20
2022-10-21T01:00:42.386Z,87.20
2022-10-21T01:03:09.271Z,87.10
2022-10-21T01:05:41.112Z,87.00
2022-10-21T01:08:13.833Z,87.20
2022-10-21T01:10:41.326Z,87.50
2022-10-21T01:13:29.530Z,87.40
2022-10-21T01:16:03.563Z,87.50
2022-10-21T01:18:56.533Z,87.40
2022-10-21T01:21:53.082Z,87.30
2022-10-21T01:24:57.079Z,87.40
2022-10-21T01:27:55.256Z,87.50
2022-10-21T01:30:46.187Z,87.80
2022-10-21T01:33:38.952Z,87.60
2022-10-21T01:36:12.363Z,87.60
2022-10-21T01:38:39.099Z,87.50
2022-10-21T01:41:30.266Z,87.40
2022-10-21T01:44:12.813Z,87.40
2022-10-21T01:47:06.848Z,87.20
2022-10-21T01:49:43.629Z,87.50
2022-10-21T01:52:12.478Z,87.60
2022-10-21T01:54:44.151Z,87.50
2022-10-21T01:57:15.484Z,87.80
2022-10-21T01:59:44.215Z,87.60
2022-10-21T02:02:11.814Z,87.90
2022-10-21T02:04:42.642Z,87.90
2022-10-21T02:07:09.545Z,87.70
2022-10-21T02:09:36.626Z,88.10
2022-10-21T02:12:05.622Z,88.70
2022-10-21T02:14:48.508Z,88.10
2022-10-21T02:17:19.548Z,88.10
2022-10-21T02:19:47.913Z,88.10
2022-10-21T02:22:18.900Z,88.10
2022-10-21T02:25:00.131Z,87.90
2022-10-21T02:27:27.294Z,87.60
2022-10-21T02:29:57.205Z,88.00
2022-10-21T02:33:03.480Z,87.90
2022-10-21T02:35:49.608Z,87.90
2022-10-21T02:38:37.530Z,87.90
2022-10-21T02:41:13.434Z,87.60
2022-10-21T02:43:43.865Z,87.90
2022-10-21T02:46:14.626Z,87.80
2022-10-21T02:48:45.217Z,87.70
2022-10-21T02:51:12.491Z,87.80
2022-10-21T02:53:39.341Z,88.10
2022-10-21T02:56:06.574Z,88.00
2022-10-21T02:58:33.603Z,88.10
2022-10-21T03:01:01.006Z,88.40
2022-10-21T03:03:29.891Z,88.20
2022-10-21T03:05:57.707Z,88.30
2022-10-21T03:08:25.904Z,88.50
2022-10-21T03:10:53.649Z,88.50
2022-10-21T03:13:21.426Z,88.50
2022-10-21T03:15:48.985Z,88.20
2022-10-21T03:18:15.794Z,88.30
2022-10-21T03:20:42.715Z,88.30
2022-10-21T03:23:10.146Z,88.50
2022-10-21T03:25:36.854Z,88.40
2022-10-21T03:28:03.595Z,88.30
2022-10-21T03:30:30.488Z,88.10
2022-10-21T03:32:57.182Z,88.00
2022-10-21T03:35:23.859Z,88.20
2022-10-21T03:37:51.870Z,88.00
2022-10-21T03:40:18.833Z,87.90
2022-10-21T03:42:45.653Z,88.40
2022-10-21T03:45:12.758Z,88.10
2022-10-21T03:47:41.784Z,88.30
2022-10-21T03:50:13.033Z,88.50
2022-10-21T03:52:42.434Z,88.40
2022-10-21T03:55:13.136Z,88.40
2022-10-21T03:57:40.073Z,88.40
2022-10-21T04:00:07.842Z,88.40
2022-10-21T04:02:34.480Z,88.50
2022-10-21T04:05:01.303Z,89.00
2022-10-21T04:07:28.173Z,88.70
2022-10-21T04:09:56.067Z,88.80
2022-10-21T04:12:22.753Z,89.20
2022-10-21T04:14:50.424Z,89.20
2022-10-21T04:17:16.983Z,89.60
2022-10-21T04:19:43.738Z,89.50
2022-10-21T04:22:10.482Z,89.70
2022-10-21T04:24:37.260Z,89.60
2022-10-21T04:27:03.970Z,89.70
2022-10-21T04:29:30.734Z,89.50
2022-10-21T04:31:57.556Z,89.40
2022-10-21T04:34:24.251Z,89.50
2022-10-21T04:36:50.937Z,89.60
2022-10-21T04:39:19.796Z,89.60
2022-10-21T04:41:47.880Z,89.50
2022-10-21T04:44:14.775Z,89.10
2022-10-21T04:46:47.377Z,89.10
2022-10-21T04:49:14.323Z,89.10
2022-10-21T04:51:41.091Z,89.00
2022-10-21T04:54:07.864Z,88.90
2022-10-21T04:56:41.870Z,88.90
2022-10-21T04:59:11.486Z,89.00
2022-10-21T05:01:38.324Z,89.20
2022-10-21T05:04:05.014Z,88.90
2022-10-21T05:06:31.899Z,89.00
2022-10-21T05:08:58.650Z,89.10
2022-10-21T05:11:25.531Z,89.10
2022-10-21T05:13:52.466Z,89.00
2022-10-21T05:16:19.204Z,88.90
2022-10-21T05:18:46.307Z,88.80
2022-10-21T05:21:14.156Z,88.90
2022-10-21T05:23:41.413Z,89.10
2022-10-21T05:26:08.877Z,88.80
2022-10-21T05:28:36.241Z,88.60
2022-10-21T05:31:03.035Z,88.80
2022-10-21T05:33:33.454Z,88.80
2022-10-21T05:36:07.495Z,88.80
2022-10-21T05:38:35.102Z,88.80
2022-10-21T05:41:01.713Z,88.60
2022-10-21T05:43:28.367Z,88.50
2022-10-21T05:45:58.930Z,88.70
2022-10-21T05:48:25.729Z,88.90
2022-10-21T05:50:55.580Z,89.40
2022-10-21T05:53:25.342Z,89.60
2022-10-21T05:56:06.727Z,89.60
2022-10-21T05:58:40.635Z,89.60
2022-10-21T06:01:10.158Z,89.50
2022-10-21T06:03:38.307Z,89.50
2022-10-21T06:06:09.469Z,89.90
2022-10-21T06:08:39.034Z,89.70
2022-10-21T06:11:12.031Z,89.70
2022-10-21T06:13:39.430Z,89.80
2022-10-21T06:16:08.156Z,90.00
2022-10-21T06:18:35.204Z,90.40
2022-10-21T06:21:02.031Z,90.40
2022-10-21T06:23:29.068Z,90.60
2022-10-21T06:26:21.978Z,90.70
2022-10-21T06:28:48.651Z,90.60
2022-10-21T06:31:20.434Z,90.40
2022-10-21T06:33:49.144Z,90.30
2022-10-21T06:36:16.544Z,90.10
2022-10-21T06:38:43.572Z,89.90
2022-10-21T06:41:14.584Z,89.80
2022-10-21T06:43:43.532Z,89.80
2022-10-21T06:46:14.335Z,89.80
2022-10-21T06:48:41.449Z,89.70
2022-10-21T06:51:15.564Z,89.60
2022-10-21T06:53:43.247Z,89.40
2022-10-21T06:56:17.444Z,89.10
2022-10-21T06:58:48.188Z,89.00
2022-10-21T07:01:41.051Z,89.00
2022-10-21T07:04:16.168Z,89.00
2022-10-21T07:06:46.051Z,88.60
2022-10-21T07:09:15.209Z,88.40
2022-10-21T07:11:42.024Z,88.20
2022-10-21T07:14:12.473Z,87.70
2022-10-21T07:16:39.405Z,87.30
2022-10-21T07:19:06.921Z,87.00
2022-10-21T07:21:33.859Z,86.60
2022-10-21T07:24:00.832Z,86.40
2022-10-21T07:26:33.234Z,86.50
2022-10-21T07:29:00.966Z,86.70
2022-10-21T07:31:30.728Z,85.90
2022-10-21T07:33:57.537Z,85.70
2022-10-21T07:36:32.795Z,85.60
2022-10-21T07:39:02.841Z,85.70
2022-10-21T07:41:35.310Z,85.50
2022-10-21T07:44:02.464Z,85.30
2022-10-21T07:46:29.484Z,85.30
2022-10-21T07:48:56.292Z,85.10
2022-10-21T07:51:31.354Z,84.80
2022-10-21T07:54:00.240Z,84.50
2022-10-21T07:56:35.206Z,84.60
2022-10-21T07:59:12.674Z,84.60
2022-10-21T08:01:44.517Z,84.40
2022-10-21T08:04:14.278Z,84.10
2022-10-21T08:06:41.821Z,84.20
2022-10-21T08:09:08.832Z,83.50
2022-10-21T08:11:36.120Z,83.30
2022-10-21T08:14:06.794Z,83.00
2022-10-21T08:16:34.242Z,82.90
2022-10-21T08:19:02.014Z,82.90
2022-10-21T08:21:29.126Z,83.10
2022-10-21T08:23:55.853Z,83.00
2022-10-21T08:26:22.690Z,82.00
2022-10-21T08:28:49.408Z,82.20
2022-10-21T08:31:19.317Z,82.00
2022-10-21T08:33:46.705Z,81.90
2022-10-21T08:36:20.354Z,81.80
2022-10-21T08:38:48.578Z,81.70
2022-10-21T08:41:30.345Z,81.70
2022-10-21T08:44:04.881Z,81.70
2022-10-21T08:46:40.942Z,81.50
2022-10-21T08:49:30.951Z,81.40
2022-10-21T08:52:04.442Z,81.10
2022-10-21T08:54:43.564Z,81.00
2022-10-21T08:57:19.973Z,80.90
2022-10-21T08:59:46.807Z,80.90
2022-10-21T09:02:13.445Z,80.70
2022-10-21T09:05:00.329Z,80.70
2022-10-21T09:07:39.388Z,79.90
2022-10-21T09:10:39.345Z,79.90
2022-10-21T09:13:10.881Z,79.70
2022-10-21T09:15:47.023Z,79.70
2022-10-21T09:18:26.492Z,79.10
2022-10-21T09:21:22.406Z,78.40
2022-10-21T09:24:13.264Z,78.60
2022-10-21T09:26:44.556Z,78.10
2022-10-21T09:29:32.446Z,78.20
2022-10-21T09:32:05.199Z,78.30
2022-10-21T09:35:00.583Z,78.50
2022-10-21T09:37:36.245Z,78.80
2022-10-21T09:40:29.998Z,78.80
2022-10-21T09:43:02.147Z,78.80
2022-10-21T09:45:40.583Z,79.20
2022-10-21T09:48:19.940Z,78.50
2022-10-21T09:50:51.255Z,78.50
2022-10-21T09:53:26.366Z,79.20
2022-10-21T09:56:01.966Z,78.60
2022-10-21T09:58:38.397Z,78.60
2022-10-21T10:01:08.074Z,78.00
2022-10-21T10:03:44.630Z,78.20
2022-10-21T10:06:11.997Z,77.90
2022-10-21T10:08:44.900Z,77.90
2022-10-21T10:11:13.414Z,78.10
2022-10-21T10:13:44.646Z,78.30
2022-10-21T10:16:17.463Z,78.10
2022-10-21T10:18:45.092Z,77.80
2022-10-21T10:21:15.080Z,77.60
2022-10-21T10:23:48.317Z,77.20
2022-10-21T10:26:28.715Z,77.10
2022-10-21T10:29:14.826Z,77.00
2022-10-21T10:31:51.094Z,77.00
2022-10-21T10:34:30.643Z,77.60
2022-10-21T10:37:26.692Z,76.70
2022-10-21T10:39:56.933Z,76.20
2022-10-21T10:42:27.268Z,76.80
2022-10-21T10:45:00.807Z,76.80
2022-10-21T10:47:37.932Z,77.10
2022-10-21T10:50:05.145Z,76.80
2022-10-21T10:52:31.789Z,77.30
2022-10-21T10:55:28.333Z,77.30
2022-10-21T10:58:09.946Z,77.20
2022-10-21T11:00:44.813Z,77.50
2022-10-21T11:03:17.202Z,78.30
2022-10-21T11:05:50.802Z,78.40
2022-10-21T11:08:29.710Z,78.60
2022-10-21T11:11:21.131Z,78.80
2022-10-21T11:13:47.981Z,78.70
2022-10-21T11:17:00.093Z,77.20
2022-10-21T11:19:56.908Z,77.60
2022-10-21T11:22:34.136Z,77.50
2022-10-21T11:25:07.150Z,77.50
2022-10-21T11:27:38.101Z,77.40
2022-10-21T11:30:14.029Z,76.30
2022-10-21T11:33:09.201Z,75.60
2022-10-21T11:36:06.203Z,75.40
2022-10-21T11:38:50.629Z,75.70
2022-10-21T11:41:31.119Z,75.40
2022-10-21T11:44:29.877Z,75.00
2022-10-21T11:47:34.356Z,75.30
2022-10-21T11:50:28.443Z,75.20
2022-10-21T11:53:18.351Z,75.40
2022-10-21T11:56:05.302Z,75.20
2022-10-21T11:58:39.167Z,74.60
2022-10-21T12:01:24.173Z,75.40
2022-10-21T12:04:16.054Z,75.10
2022-10-21T12:06:43.767Z,74.50
2022-10-21T12:09:37.217Z,75.10
2022-10-21T12:12:06.042Z,74.70
2022-10-21T12:14:37.258Z,74.90
2022-10-21T12:17:09.223Z,73.90
2022-10-21T12:19:36.665Z,74.20
2022-10-21T12:22:03.791Z,74.20
2022-10-21T12:24:33.947Z,74.40
2022-10-21T12:27:22.036Z,75.10
2022-10-21T12:30:25.016Z,75.20
2022-10-21T12:33:24.623Z,75.30
2022-10-21T12:35:53.925Z,75.50
2022-10-21T12:38:23.403Z,75.40
2022-10-21T12:41:11.626Z,75.90
2022-10-21T12:43:39.326Z,76.10
2022-10-21T12:46:11.397Z,75.60
2022-10-21T12:48:45.907Z,75.40
2022-10-21T12:51:39.519Z,74.80
2022-10-21T12:54:13.546Z,74.50
2022-10-21T12:56:51.031Z,74.10
2022-10-21T12:59:29.079Z,73.40
2022-10-21T13:02:04.951Z,74.00
2022-10-21T13:04:34.852Z,74.10
2022-10-21T13:07:27.699Z,74.20
2022-10-21T13:09:54.702Z,73.70
2022-10-21T13:12:24.263Z,73.60
2022-10-21T13:14:59.611Z,73.70
2022-10-21T13:17:46.933Z,72.90
2022-10-21T13:20:22.058Z,74.00
2022-10-21T13:22:50.928Z,74.50
2022-10-21T13:25:24.131Z,73.70
2022-10-21T13:28:12.724Z,73.00
2022-10-21T13:30:40.569Z,72.60
2022-10-21T13:33:18.000Z,72.40
2022-10-21T13:35:47.855Z,72.50
2022-10-21T13:38:27.310Z,72.50
2022-10-21T13:41:02.732Z,72.50
2022-10-21T13:43:52.936Z,72.80
2022-10-21T13:46:52.692Z,73.50
2022-10-21T13:49:30.583Z,73.20
2022-10-21T13:51:58.235Z,73.30
2022-10-21T13:54:24.974Z,72.80
2022-10-21T13:56:51.806Z,73.00
2022-10-21T13:59:32.610Z,73.50
2022-10-21T14:01:59.456Z,73.40
2022-10-21T14:04:33.142Z,73.30
2022-10-21T14:07:06.335Z,73.40
2022-10-21T14:09:47.876Z,73.20
2022-10-21T14:12:43.977Z,73.20
2022-10-21T14:15:19.181Z,73.40
2022-10-21T14:17:55.492Z,73.30
2022-10-21T14:20:34.660Z,73.50
2022-10-21T14:23:06.027Z,73.50
2022-10-21T14:25:33.955Z,73.70
2022-10-21T14:28:03.369Z,74.00
2022-10-21T14:30:33.319Z,74.50
2022-10-21T14:33:04.630Z,74.30
2022-10-21T14:35:31.710Z,74.00
2022-10-21T14:38:02.289Z,74.10
2022-10-21T14:40:41.555Z,74.30
2022-10-21T14:43:45.737Z,74.30
2022-10-21T14:46:12.913Z,74.70
2022-10-21T14:49:03.307Z,74.70
2022-10-21T14:51:36.470Z,74.90
2022-10-21T14:54:33.880Z,75.10
2022-10-21T14:57:01.412Z,75.40
2022-10-21T14:59:39.462Z,75.40
2022-10-21T15:02:13.482Z,76.10
2022-10-21T15:04:58.183Z,76.10
2022-10-21T15:07:38.276Z,75.90
2022-10-21T15:10:04.928Z,76.00
2022-10-21T15:12:52.942Z,76.50
2022-10-21T15:15:41.099Z,76.50
2022-10-21T15:18:22.054Z,76.30
2022-10-21T15:21:13.738Z,76.60
2022-10-21T15:23:50.838Z,76.50
2022-10-21T15:26:22.888Z,76.80
2022-10-21T15:28:50.799Z,76.90
2022-10-21T15:31:28.879Z,77.40
2022-10-21T15:33:57.364Z,78.00
2022-10-21T15:36:24.778Z,78.60
2022-10-21T15:38:51.798Z,78.60
2022-10-21T15:41:21.379Z,78.70
2022-10-21T15:44:05.305Z,79.10
2022-10-21T15:46:45.631Z,79.20
2022-10-21T15:49:21.062Z,80.10
2022-10-21T15:51:49.244Z,80.10
2022-10-21T15:54:17.824Z,80.20
2022-10-21T15:56:46.890Z,80.40
2022-10-21T15:59:27.868Z,80.50
2022-10-21T16:01:55.846Z,81.20
2022-10-21T16:04:23.560Z,81.50
2022-10-21T16:06:52.393Z,81.20
2022-10-21T16:09:23.447Z,81.80
2022-10-21T16:12:00.162Z,81.70
2022-10-21T16:14:31.359Z,82.60
2022-10-21T16:17:02.710Z,82.50
2022-10-21T16:19:29.397Z,82.60
2022-10-21T16:21:56.843Z,83.10
2022-10-21T16:24:24.525Z,82.50
2022-10-21T16:26:51.399Z,82.60
2022-10-21T16:29:22.825Z,82.80
2022-10-21T16:31:54.147Z,82.60
2022-10-21T16:34:22.215Z,83.20
2022-10-21T16:36:49.023Z,83.70
2022-10-21T16:39:18.785Z,83.50
2022-10-21T16:41:45.842Z,83.60
2022-10-21T16:44:12.812Z,83.90
2022-10-21T16:46:59.931Z,83.80
2022-10-21T16:49:27.871Z,83.90
2022-10-21T16:51:57.549Z,84.40
2022-10-21T16:54:26.468Z,84.60
2022-10-21T16:56:55.187Z,84.60
2022-10-21T16:59:23.035Z,84.90
2022-10-21T17:01:51.559Z,85.00
2022-10-21T17:04:18.536Z,85.10
2022-10-21T17:06:47.391Z,85.80
2022-10-21T17:09:14.299Z,85.80
2022-10-21T17:11:43.611Z,86.00
2022-10-21T17:14:18.090Z,86.20
2022-10-21T17:16:45.508Z,85.90
2022-10-21T17:19:14.091Z,86.40
2022-10-21T17:21:40.969Z,86.30
2022-10-21T17:24:15.370Z,86.20
2022-10-21T17:26:43.212Z,86.30
2022-10-21T17:29:10.806Z,86.30
2022-10-21T17:31:38.080Z,86.30
2022-10-21T17:34:08.917Z,86.50
2022-10-21T17:36:37.301Z,86.70
2022-10-21T17:39:05.458Z,86.30
2022-10-21T17:41:38.957Z,86.40
2022-10-21T17:44:05.923Z,86.00
2022-10-21T17:46:32.621Z,86.00
2022-10-21T17:48:59.411Z,86.10
2022-10-21T17:51:26.572Z,86.10
2022-10-21T17:53:54.451Z,86.10
2022-10-21T17:56:27.256Z,86.10
2022-10-21T17:58:56.040Z,86.30
2022-10-21T18:01:27.375Z,86.30
2022-10-21T18:03:57.823Z,86.20
2022-10-21T18:06:24.706Z,86.20
2022-10-21T18:08:52.911Z,86.20
2022-10-21T18:11:24.919Z,86.20
2022-10-21T18:13:55.236Z,86.10
2022-10-21T18:16:24.614Z,85.90
2022-10-21T18:18:55.233Z,85.90
2022-10-21T18:21:25.194Z,85.80
2022-10-21T18:23:53.602Z,86.10
2022-10-21T18:26:25.682Z,86.10
2022-10-21T18:28:56.977Z,85.90
2022-10-21T18:31:26.260Z,85.90
2022-10-21T18:33:56.431Z,85.90
2022-10-21T18:36:23.801Z,85.70
2022-10-21T18:38:51.125Z,85.80
2022-10-21T18:41:20.587Z,85.80
2022-10-21T18:43:51.025Z,85.60
2022-10-21T18:46:18.274Z,85.60
2022-10-21T18:48:48.625Z,85.40
2022-10-21T18:51:23.949Z,85.30
2022-10-21T18:53:53.360Z,85.00
2022-10-21T18:56:22.188Z,84.90
2022-10-21T18:58:52.389Z,84.80
2022-10-21T19:01:27.196Z,85.00
2022-10-21T19:03:55.245Z,85.40
2022-10-21T19:06:40.704Z,85.30
2022-10-21T19:09:21.614Z,85.50
2022-10-21T19:11:49.317Z,85.50
2022-10-21T19:14:16.491Z,85.50
2022-10-21T19:16:44.617Z,85.30
2022-10-21T19:19:14.791Z,85.40
2022-10-21T19:21:42.062Z,85.00
2022-10-21T19:24:10.039Z,85.20
2022-10-21T19:26:39.482Z,85.00
2022-10-21T19:29:13.462Z,85.10
2022-10-21T19:31:41.642Z,85.00
2022-10-21T19:34:16.346Z,84.70
2022-10-21T19:36:43.411Z,85.00
2022-10-21T19:39:10.879Z,84.80
2022-10-21T19:41:37.663Z,85.00
2022-10-21T19:44:04.621Z,84.90
2022-10-21T19:46:33.863Z,84.90
2022-10-21T19:49:01.953Z,84.80
2022-10-21T19:51:29.275Z,84.80
2022-10-21T19:53:56.656Z,85.20
2022-10-21T19:56:29.674Z,85.00
2022-10-21T19:59:00.061Z,85.10
2022-10-21T20:01:27.116Z,85.10
2022-10-21T20:03:57.454Z,85.30
2022-10-21T20:06:29.918Z,85.30
2022-10-21T20:08:59.175Z,85.60
2022-10-21T20:11:27.651Z,85.40
2022-10-21T20:13:58.568Z,86.00
2022-10-21T20:16:30.919Z,86.20
2022-10-21T20:18:59.499Z,86.40
2022-10-21T20:21:30.464Z,86.60
2022-10-21T20:23:58.527Z,87.00
2022-10-21T20:26:25.921Z,86.80
2022-10-21T20:28:53.029Z,86.90
2022-10-21T20:31:19.944Z,86.70
2022-10-21T20:33:49.788Z,86.70
2022-10-21T20:36:26.564Z,86.70
2022-10-21T20:38:56.095Z,86.70
2022-10-21T20:41:26.674Z,86.80
2022-10-21T20:43:55.048Z,86.70
2022-10-21T20:46:25.018Z,86.50
2022-10-21T20:48:53.468Z,86.70
2022-10-21T20:51:24.011Z,86.70
2022-10-21T20:53:53.547Z,86.90
2022-10-21T20:56:21.120Z,86.90
2022-10-21T20:58:48.123Z,86.90
2022-10-21T21:01:20.861Z,86.90
2022-10-21T21:03:52.014Z,86.60
2022-10-21T21:06:20.257Z,86.80
2022-10-21T21:08:49.243Z,87.10
2022-10-21T21:11:34.473Z,87.00
2022-10-21T21:14:01.277Z,87.30
2022-10-21T21:16:30.050Z,87.50
2022-10-21T21:19:04.949Z,87.40
2022-10-21T21:21:36.542Z,87.20
2022-10-21T21:24:03.955Z,87.40
2022-10-21T21:26:34.211Z,87.50
2022-10-21T21:29:01.663Z,87.30
2022-10-21T21:31:30.931Z,87.40
2022-10-21T21:33:58.065Z,87.40
2022-10-21T21:36:25.340Z,87.60
2022-10-21T21:38:54.067Z,88.00
2022-10-21T21:41:24.365Z,88.20
2022-10-21T21:43:54.136Z,88.10
2022-10-21T21:46:23.792Z,87.90
2022-10-21T21:49:05.146Z,88.20
2022-10-21T21:51:34.720Z,88.00
2022-10-21T21:54:01.911Z,87.90
2022-10-21T21:56:29.899Z,87.90
2022-10-21T21:58:57.975Z,88.20
2022-10-21T22:01:27.472Z,88.30
2022-10-21T22:03:55.369Z,88.40
2022-10-21T22:06:28.907Z,88.30
2022-10-21T22:08:56.041Z,88.50
2022-10-21T22:11:26.353Z,88.50
2022-10-21T22:13:53.356Z,88.70
2022-10-21T22:16:22.208Z,88.60
2022-10-21T22:18:49.406Z,88.50
2022-10-21T22:21:18.219Z,88.70
2022-10-21T22:23:46.508Z,88.50
2022-10-21T22:26:15.537Z,88.50
2022-10-21T22:28:42.735Z,88.70
2022-10-21T22:31:14.053Z,88.60
2022-10-21T22:36:14.280Z,88.50
2022-10-21T22:38:41.042Z,88.80
2022-10-21T22:41:12.252Z,88.70
2022-10-21T22:43:39.582Z,88.70
2022-10-21T22:46:21.458Z,88.70
2022-10-21T22:48:53.443Z,88.70
2022-10-21T22:51:20.137Z,88.70
2022-10-21T22:53:51.903Z,89.00
2022-10-21T22:56:22.464Z,89.30
2022-10-21T22:58:49.213Z,89.50
2022-10-21T23:01:15.962Z,89.50
2022-10-21T23:03:42.754Z,89.70
2022-10-21T23:06:09.711Z,89.90
2022-10-21T23:08:36.639Z,90.20
2022-10-21T23:11:03.832Z,90.00
2022-10-21T23:13:30.525Z,90.00
2022-10-21T23:15:57.319Z,90.00
2022-10-21T23:18:24.023Z,90.10
2022-10-21T23:20:53.187Z,90.20
2022-10-21T23:23:21.303Z,90.20
2022-10-21T23:25:48.012Z,90.00
2022-10-21T23:28:15.845Z,90.00
2022-10-21T23:30:48.623Z,89.90
2022-10-21T23:33:15.328Z,89.90
2022-10-21T23:35:42.124Z,90.00
2022-10-21T23:38:09.210Z,90.00
2022-10-21T23:40:35.978Z,89.90
2022-10-21T23:43:02.867Z,90.10
2022-10-21T23:45:29.528Z,90.30
2022-10-21T23:47:56.318Z,90.30
2022-10-21T23:50:23.044Z,90.20
2022-10-21T23:52:49.966Z,90.30
2022-10-21T23:55:16.817Z,90.50
2022-10-21T23:57:43.826Z,90.60
